Time;durP1;ratioP1;P1;durP2;ratioP2;P2;SDS_P1;SDS_P2;PMS_P1;PMS_P2;Temp;Humidity;BMP_temperature;BMP_pressure;BME280_temperature;BME280_humidity;BME280_pressure;Samples;Min_cycle;Max_cycle;Signal;HPM_P1;HPM_P2
2020/12/14 00:01:59;;;;;;;1.80;1.70;;;18.70;50.80;;;;;;5065299;28;20029;-50
2020/12/14 00:04:24;;;;;;;1.67;1.50;;;18.70;50.90;;;;;;5067174;28;20469;-52
2020/12/14 00:06:50;;;;;;;2.15;1.67;;;18.70;50.90;;;;;;5066716;28;20087;-51
2020/12/14 00:09:16;;;;;;;3.15;1.85;;;18.80;50.90;;;;;;5066786;28;20041;-52
2020/12/14 00:11:41;;;;;;;1.98;1.80;;;18.80;51.00;;;;;;5066316;28;20119;-49
2020/12/14 00:14:07;;;;;;;2.60;1.95;;;18.70;50.90;;;;;;5067184;28;20029;-47
2020/12/14 00:16:33;;;;;;;2.53;1.45;;;18.70;50.90;;;;;;5067465;28;20032;-48
2020/12/14 00:18:59;;;;;;;2.00;1.77;;;18.70;50.90;;;;;;5062917;22;20087;-46
2020/12/14 00:21:24;;;;;;;3.10;1.60;;;18.70;50.90;;;;;;5066544;28;20104;-45
2020/12/14 00:23:51;;;;;;;2.47;1.85;;;18.80;50.90;;;;;;5066841;28;20078;-45
2020/12/14 00:26:17;;;;;;;3.58;1.80;;;18.80;50.90;;;;;;5066775;28;20025;-45
2020/12/14 00:28:47;;;;;;;2.58;1.80;;;18.80;50.90;;;;;;5065875;28;20485;-46
2020/12/14 00:31:13;;;;;;;3.95;2.13;;;18.80;50.90;;;;;;5059688;28;20115;-44
2020/12/14 00:33:38;;;;;;;2.08;1.90;;;18.80;50.90;;;;;;5066235;28;20027;-45
2020/12/14 00:36:03;;;;;;;4.05;2.00;;;18.80;50.80;;;;;;5065639;28;20363;-44
2020/12/14 00:38:29;;;;;;;3.28;1.90;;;18.80;50.80;;;;;;5066305;28;20037;-45
2020/12/14 00:40:54;;;;;;;2.22;1.85;;;18.80;51.00;;;;;;5066008;28;20082;-45
2020/12/14 00:43:20;;;;;;;2.22;1.58;;;18.80;50.80;;;;;;5066680;28;20041;-45
2020/12/14 00:45:45;;;;;;;3.08;2.13;;;18.80;50.80;;;;;;5066437;28;20490;-45
2020/12/14 00:48:11;;;;;;;2.10;1.88;;;18.90;50.80;;;;;;5066246;28;20041;-45
2020/12/14 00:50:36;;;;;;;2.80;1.65;;;18.90;50.80;;;;;;5066563;28;20029;-45
2020/12/14 00:53:02;;;;;;;3.33;2.15;;;18.90;50.70;;;;;;5065841;28;20442;-45
2020/12/14 00:55:27;;;;;;;2.00;1.40;;;18.90;50.70;;;;;;5066611;28;20082;-46
2020/12/14 00:57:53;;;;;;;1.70;1.60;;;18.90;50.70;;;;;;5066380;28;20032;-45
2020/12/14 01:00:18;;;;;;;2.25;1.85;;;18.90;50.70;;;;;;5063008;28;20029;-45
2020/12/14 01:02:44;;;;;;;2.38;2.03;;;18.90;50.60;;;;;;5062974;28;20504;-44
2020/12/14 01:05:09;;;;;;;2.05;1.77;;;18.90;50.60;;;;;;5063102;28;20033;-47
2020/12/14 01:07:35;;;;;;;3.47;2.08;;;18.90;50.60;;;;;;5048714;28;20059;-46
2020/12/14 01:10:00;;;;;;;1.70;1.55;;;18.90;50.60;;;;;;5046716;28;20021;-45
2020/12/14 01:12:26;;;;;;;2.10;1.90;;;18.90;50.50;;;;;;5045112;28;20033;-45
2020/12/14 01:14:51;;;;;;;2.28;1.75;;;18.90;50.60;;;;;;5045978;28;20082;-45
2020/12/14 01:17:17;;;;;;;2.17;1.40;;;18.90;50.60;;;;;;5045974;28;20037;-44
2020/12/14 01:19:42;;;;;;;1.60;1.50;;;18.90;50.60;;;;;;5045920;28;20037;-45
2020/12/14 01:22:08;;;;;;;1.67;1.58;;;18.90;50.60;;;;;;5046482;28;20083;-44
2020/12/14 01:24:33;;;;;;;1.58;1.48;;;18.90;50.60;;;;;;5046053;28;20083;-45
2020/12/14 01:26:59;;;;;;;2.28;1.83;;;18.90;50.60;;;;;;5046076;28;20494;-44
2020/12/14 01:29:24;;;;;;;1.40;1.30;;;18.90;50.60;;;;;;5045825;28;20039;-46
2020/12/14 01:31:50;;;;;;;1.58;1.48;;;18.90;50.70;;;;;;5045362;28;20033;-44
2020/12/14 01:34:15;;;;;;;1.90;1.40;;;18.90;50.70;;;;;;5046029;28;20032;-45
2020/12/14 01:36:41;;;;;;;1.45;1.35;;;18.90;50.70;;;;;;5046560;28;20486;-45
2020/12/14 01:39:06;;;;;;;2.50;2.00;;;18.90;50.70;;;;;;5045895;28;20037;-45
2020/12/14 01:41:32;;;;;;;1.67;1.50;;;18.90;50.70;;;;;;5045553;28;20116;-45
2020/12/14 01:43:57;;;;;;;2.17;1.63;;;18.90;50.70;;;;;;5045947;28;20390;-45
2020/12/14 01:46:30;;;;;;;1.83;1.30;;;18.90;50.70;;;;;;5043736;28;20037;-44
2020/12/14 01:49:00;;;;;;;1.77;1.67;;;18.90;50.70;;;;;;5046053;28;20033;-45
2020/12/14 01:51:29;;;;;;;1.63;1.50;;;18.90;50.70;;;;;;5043481;28;20041;-45
2020/12/14 01:53:57;;;;;;;2.00;1.50;;;18.90;50.70;;;;;;5045841;28;20087;-45
2020/12/14 01:56:23;;;;;;;1.77;1.58;;;18.90;50.70;;;;;;5045450;28;20124;-45
2020/12/14 01:58:49;;;;;;;1.50;1.40;;;18.90;50.70;;;;;;5046802;28;20140;-45
2020/12/14 02:01:15;;;;;;;1.83;1.73;;;18.90;50.70;;;;;;5049782;28;20190;-45
2020/12/14 02:03:40;;;;;;;1.80;1.60;;;18.90;50.70;;;;;;5049816;28;20565;-45
2020/12/14 02:06:06;;;;;;;1.55;1.45;;;18.90;50.80;;;;;;5049103;28;20029;-45
2020/12/14 02:08:32;;;;;;;1.60;1.45;;;18.90;50.80;;;;;;5049699;28;20043;-47
2020/12/14 02:10:57;;;;;;;1.77;1.20;;;18.80;50.70;;;;;;5049441;28;20036;-45
2020/12/14 02:13:23;;;;;;;1.55;1.20;;;18.80;50.70;;;;;;5049151;28;20409;-45
2020/12/14 02:15:48;;;;;;;2.45;1.48;;;18.80;50.80;;;;;;5048291;28;20056;-45
2020/12/14 02:18:14;;;;;;;1.40;1.30;;;18.80;50.80;;;;;;5049707;28;20402;-45
2020/12/14 02:20:39;;;;;;;1.42;1.33;;;18.80;50.80;;;;;;5049066;28;20048;-44
2020/12/14 02:23:05;;;;;;;1.73;1.63;;;18.80;50.80;;;;;;5048753;28;20048;-45
2020/12/14 02:25:30;;;;;;;1.38;1.27;;;18.80;50.90;;;;;;5048946;28;20040;-45
2020/12/14 02:27:56;;;;;;;1.73;1.63;;;18.70;50.80;;;;;;5048710;28;20082;-47
2020/12/14 02:30:21;;;;;;;1.50;1.40;;;18.80;50.90;;;;;;5049244;28;20041;-45
2020/12/14 02:32:47;;;;;;;1.70;1.48;;;18.70;50.80;;;;;;5048749;28;20131;-49
2020/12/14 02:35:12;;;;;;;1.50;1.33;;;18.70;50.90;;;;;;5049187;28;20399;-45
2020/12/14 02:37:38;;;;;;;2.45;1.10;;;18.70;50.80;;;;;;5048835;28;20032;-44
2020/12/14 02:40:04;;;;;;;1.40;1.30;;;18.60;50.80;;;;;;5049025;28;20021;-45
2020/12/14 02:42:29;;;;;;;3.63;1.50;;;18.60;50.90;;;;;;5048010;28;20490;-45
2020/12/14 02:44:55;;;;;;;1.77;1.40;;;18.60;50.90;;;;;;5048859;28;20028;-48
2020/12/14 02:47:20;;;;;;;1.83;1.20;;;18.60;50.90;;;;;;5047629;28;20048;-48
2020/12/14 02:49:46;;;;;;;2.33;1.20;;;18.60;50.90;;;;;;5049260;28;20327;-46
2020/12/14 02:52:12;;;;;;;1.50;1.20;;;18.60;50.90;;;;;;5048218;28;20037;-44
2020/12/14 02:54:38;;;;;;;1.38;1.25;;;18.50;50.90;;;;;;5048861;28;20052;-44
2020/12/14 02:57:03;;;;;;;1.50;1.40;;;18.50;50.90;;;;;;5048447;28;20032;-45
2020/12/14 02:59:29;;;;;;;1.92;1.63;;;18.50;50.90;;;;;;5048561;28;20033;-46
2020/12/14 03:01:54;;;;;;;1.40;1.30;;;18.50;50.90;;;;;;5049022;28;20033;-45
2020/12/14 03:04:20;;;;;;;1.20;1.10;;;18.50;51.00;;;;;;5047680;28;20037;-46
2020/12/14 03:06:46;;;;;;;1.65;1.30;;;18.40;51.00;;;;;;5047649;28;20521;-44
2020/12/14 03:09:12;;;;;;;1.55;1.20;;;18.40;50.90;;;;;;5048171;28;20036;-44
2020/12/14 03:11:38;;;;;;;1.30;1.20;;;18.40;51.00;;;;;;5046288;28;20131;-45
2020/12/14 03:14:04;;;;;;;1.90;1.33;;;18.40;51.00;;;;;;5048382;28;20053;-46
2020/12/14 03:16:29;;;;;;;2.05;1.50;;;18.40;51.00;;;;;;5048172;28;20029;-44
2020/12/14 03:18:55;;;;;;;1.30;1.17;;;18.40;51.10;;;;;;5047821;28;20087;-45
2020/12/14 03:21:20;;;;;;;1.52;1.42;;;18.40;51.20;;;;;;5047941;28;20029;-52
2020/12/14 03:23:46;;;;;;;1.88;1.75;;;18.40;51.20;;;;;;5047451;28;20055;-46
2020/12/14 03:26:17;;;;;;;1.20;1.10;;;18.40;51.00;;;;;;5047332;28;20112;-45
2020/12/14 03:28:43;;;;;;;1.02;0.93;;;18.50;51.00;;;;;;5047851;28;20486;-45
2020/12/14 03:31:09;;;;;;;1.17;1.08;;;18.50;51.00;;;;;;5047521;28;20074;-45
2020/12/14 03:33:35;;;;;;;1.20;1.10;;;18.60;51.00;;;;;;5048037;28;20120;-44
2020/12/14 03:36:00;;;;;;;0.98;0.98;;;18.70;51.20;;;;;;5047963;28;20113;-44
2020/12/14 03:38:26;;;;;;;1.42;1.20;;;18.70;51.40;;;;;;5047779;28;20069;-45
2020/12/14 03:40:52;;;;;;;1.23;0.85;;;18.80;51.40;;;;;;5047732;28;20040;-45
2020/12/14 03:43:17;;;;;;;1.67;1.00;;;18.90;51.40;;;;;;5047621;28;20605;-45
2020/12/14 03:45:43;;;;;;;1.10;1.00;;;18.90;51.50;;;;;;5047830;28;20062;-45
2020/12/14 03:48:08;;;;;;;1.52;1.20;;;19.00;51.40;;;;;;5047816;28;20029;-46
2020/12/14 03:50:34;;;;;;;1.77;1.00;;;19.00;51.30;;;;;;5047711;28;20037;-44
2020/12/14 03:52:59;;;;;;;1.20;1.00;;;19.00;51.30;;;;;;5047462;28;20406;-45
2020/12/14 03:55:25;;;;;;;1.17;1.05;;;19.10;51.20;;;;;;5047573;28;20102;-46
2020/12/14 03:57:50;;;;;;;1.05;1.00;;;19.10;51.10;;;;;;5054965;28;20021;-45
2020/12/14 04:00:16;;;;;;;1.02;0.90;;;19.10;51.00;;;;;;5067418;28;20040;-45
2020/12/14 04:02:42;;;;;;;1.13;1.02;;;19.10;50.80;;;;;;5066714;28;20285;-44
2020/12/14 04:05:07;;;;;;;1.20;1.05;;;19.10;50.70;;;;;;5067208;28;20028;-44
2020/12/14 04:07:33;;;;;;;0.95;0.90;;;19.00;50.50;;;;;;5067292;28;20047;-46
2020/12/14 04:09:58;;;;;;;1.50;1.10;;;19.10;50.40;;;;;;5066571;28;20024;-44
2020/12/14 04:12:24;;;;;;;1.17;1.08;;;19.00;50.40;;;;;;5067316;28;20399;-44
2020/12/14 04:14:49;;;;;;;2.40;1.40;;;19.10;50.40;;;;;;5067163;28;20064;-44
2020/12/14 04:17:15;;;;;;;1.15;1.05;;;19.00;50.30;;;;;;5066793;28;20052;-46
2020/12/14 04:19:40;;;;;;;3.22;1.30;;;19.00;50.50;;;;;;5067072;28;20036;-44
2020/12/14 04:22:09;;;;;;;1.45;1.30;;;19.00;50.50;;;;;;5066440;28;20032;-47
2020/12/14 04:24:35;;;;;;;1.67;0.80;;;19.00;50.60;;;;;;5066231;28;20029;-46
2020/12/14 04:27:00;;;;;;;1.25;0.80;;;19.00;50.60;;;;;;5067022;28;20029;-45
2020/12/14 04:29:26;;;;;;;1.42;1.00;;;19.00;50.60;;;;;;5067324;28;20029;-46
2020/12/14 04:31:51;;;;;;;1.05;0.95;;;18.90;50.60;;;;;;5065834;28;20614;-46
2020/12/14 04:34:17;;;;;;;1.05;0.95;;;18.90;50.50;;;;;;5066218;28;20085;-46
2020/12/14 04:36:47;;;;;;;1.08;0.93;;;18.90;50.60;;;;;;5066496;28;20028;-45
2020/12/14 04:39:12;;;;;;;1.17;1.05;;;18.90;50.60;;;;;;5066132;28;20029;-45
2020/12/14 04:41:38;;;;;;;1.27;1.17;;;18.90;50.60;;;;;;5048206;28;20378;-44
2020/12/14 04:44:04;;;;;;;1.30;1.20;;;18.90;50.60;;;;;;5048780;28;20474;-45
2020/12/14 04:46:29;;;;;;;1.10;1.00;;;18.80;50.60;;;;;;5031927;28;20081;-45
2020/12/14 04:48:55;;;;;;;1.85;1.42;;;18.80;50.60;;;;;;5048816;28;20070;-46
2020/12/14 04:51:20;;;;;;;1.13;1.00;;;18.80;50.60;;;;;;5048118;28;20473;-45
2020/12/14 04:53:46;;;;;;;1.63;1.30;;;18.80;50.60;;;;;;5031233;28;20336;-45
2020/12/14 04:56:14;;;;;;;0.90;0.90;;;18.80;50.60;;;;;;5066227;28;20334;-45
2020/12/14 04:58:40;;;;;;;0.98;0.90;;;18.80;50.60;;;;;;5032009;28;20127;-45
2020/12/14 05:01:05;;;;;;;1.88;1.30;;;18.80;50.60;;;;;;5048147;28;20113;-45
2020/12/14 05:03:31;;;;;;;1.10;1.00;;;18.70;50.70;;;;;;5065888;28;20029;-45
2020/12/14 05:05:56;;;;;;;0.98;0.98;;;18.70;50.70;;;;;;5066803;28;20020;-45
2020/12/14 05:08:25;;;;;;;1.25;1.08;;;18.70;50.70;;;;;;5047525;28;20032;-45
2020/12/14 05:10:51;;;;;;;0.85;0.85;;;18.60;50.60;;;;;;5065964;28;20033;-44
2020/12/14 05:13:17;;;;;;;0.70;0.70;;;18.70;50.70;;;;;;5066194;28;20043;-45
2020/12/14 05:15:42;;;;;;;0.90;0.80;;;18.60;50.70;;;;;;5065454;28;20032;-45
2020/12/14 05:18:12;;;;;;;0.95;0.90;;;18.60;50.70;;;;;;5065631;28;20036;-45
2020/12/14 05:20:38;;;;;;;1.65;1.20;;;18.60;50.70;;;;;;5065847;28;20486;-45
2020/12/14 05:23:05;;;;;;;0.90;0.73;;;18.60;50.80;;;;;;5047559;28;20136;-45
2020/12/14 05:25:30;;;;;;;1.23;1.13;;;18.60;50.80;;;;;;5066486;28;20057;-44
2020/12/14 05:28:14;;;;;;;0.93;0.88;;;18.60;50.80;;;;;;5047445;28;20092;-45
2020/12/14 05:30:43;;;;;;;1.10;1.00;;;18.60;50.80;;;;;;5048367;28;20048;-46
2020/12/14 05:33:10;;;;;;;1.65;0.80;;;18.60;50.80;;;;;;5065122;28;20032;-45
2020/12/14 05:35:38;;;;;;;1.70;0.95;;;18.60;50.80;;;;;;5065152;28;20025;-46
2020/12/14 05:38:13;;;;;;;1.52;1.08;;;18.60;50.70;;;;;;5065546;28;20053;-45
2020/12/14 05:40:38;;;;;;;1.67;1.08;;;18.70;50.70;;;;;;5048107;28;20190;-45
2020/12/14 05:43:15;;;;;;;1.50;0.77;;;18.70;50.80;;;;;;5065743;28;20398;-45
2020/12/14 05:45:41;;;;;;;2.42;0.90;;;18.70;50.70;;;;;;5065605;28;20039;-45
2020/12/14 05:48:24;;;;;;;1.45;0.93;;;18.80;50.80;;;;;;5065120;28;20028;-45
2020/12/14 05:50:51;;;;;;;1.20;0.70;;;18.70;50.70;;;;;;5048072;28;20509;-45
2020/12/14 05:53:18;;;;;;;2.20;1.20;;;18.80;51.40;;;;;;5065769;28;20037;-45
2020/12/14 05:55:44;;;;;;;2.22;1.10;;;18.80;50.70;;;;;;5048009;28;20441;-46
2020/12/14 05:58:09;;;;;;;3.38;1.00;;;18.90;50.70;;;;;;5047512;28;20033;-48
2020/12/14 06:00:35;;;;;;;3.60;1.20;;;18.90;50.70;;;;;;5030850;28;20180;-45
2020/12/14 06:03:01;;;;;;;6.72;1.58;;;18.90;50.70;;;;;;5031070;28;20024;-46
2020/12/14 06:05:27;;;;;;;4.15;1.50;;;18.90;50.60;;;;;;5031204;28;20107;-45
2020/12/14 06:07:58;;;;;;;5.38;1.15;;;18.90;50.60;;;;;;5047128;28;20600;-45
2020/12/14 06:10:24;;;;;;;2.08;1.10;;;18.90;50.60;;;;;;5031884;28;20028;-44
2020/12/14 06:12:49;;;;;;;3.78;1.60;;;18.90;50.50;;;;;;5047064;28;20028;-46
2020/12/14 06:15:16;;;;;;;3.58;1.40;;;18.90;50.50;;;;;;5047455;28;20109;-47
2020/12/14 06:17:41;;;;;;;3.90;1.30;;;18.90;50.50;;;;;;5065586;28;20040;-48
2020/12/14 06:22:32;;;;;;;2.40;1.58;;;19.00;50.50;;;;;;5061793;22;20422;-59
2020/12/14 06:24:59;;;;;;;3.38;1.38;;;19.00;50.50;;;;;;5027769;28;20031;-60
2020/12/14 06:27:26;;;;;;;4.13;1.63;;;18.90;50.40;;;;;;5028320;28;20668;-59
2020/12/14 06:29:51;;;;;;;5.15;1.50;;;19.00;50.50;;;;;;5027994;28;20036;-49
2020/12/14 06:32:36;;;;;;;3.13;1.75;;;19.00;50.50;;;;;;5020148;28;20030;-59
2020/12/14 06:35:04;;;;;;;5.07;2.20;;;18.90;50.40;;;;;;5026360;28;20040;-48
2020/12/14 06:37:50;;;;;;;10.95;5.70;;;19.00;50.40;;;;;;5025424;28;20041;-57
2020/12/14 06:40:15;;;;;;;22.27;11.25;;;19.00;50.50;;;;;;5026052;28;20532;-53
2020/12/14 06:42:41;;;;;;;26.42;12.45;;;19.00;50.40;;;;;;5026227;28;20028;-59
2020/12/14 06:45:07;;;;;;;35.00;15.65;;;19.00;50.40;;;;;;5027566;28;20029;-61
2020/12/14 06:47:43;;;;;;;30.58;15.43;;;19.00;50.50;;;;;;5026722;28;20064;-59
2020/12/14 06:50:28;;;;;;;28.25;14.15;;;19.00;50.40;;;;;;5029742;28;20083;-60
2020/12/14 06:52:54;;;;;;;28.17;15.82;;;19.00;51.10;;;;;;5029722;28;20017;-60
2020/12/14 06:55:42;;;;;;;33.42;15.20;;;18.90;50.30;;;;;;5030176;28;20038;-59
2020/12/14 06:58:09;;;;;;;34.35;14.63;;;18.90;50.40;;;;;;5029962;28;20033;-63
2020/12/14 07:00:34;;;;;;;33.33;15.20;;;18.90;50.30;;;;;;5011909;28;20113;-54
2020/12/14 07:03:00;;;;;;;32.70;14.30;;;18.90;50.40;;;;;;5029624;28;20105;-45
2020/12/14 07:05:28;;;;;;;29.00;15.45;;;18.90;50.50;;;;;;5029655;28;20035;-59
2020/12/14 07:07:54;;;;;;;26.45;15.05;;;18.90;50.40;;;;;;5029600;28;20029;-57
2020/12/14 07:10:28;;;;;;;30.88;15.38;;;18.90;50.40;;;;;;5029378;28;20034;-59
2020/12/14 07:12:54;;;;;;;34.50;15.23;;;18.80;50.40;;;;;;5017207;28;20476;-57
2020/12/14 07:15:37;;;;;;;28.48;13.93;;;18.80;51.00;;;;;;5009402;28;20037;-51
2020/12/14 07:18:10;;;;;;;22.73;12.82;;;18.80;50.40;;;;;;5010233;28;20049;-49
2020/12/14 07:20:46;;;;;;;30.98;13.43;;;18.70;50.30;;;;;;5010452;28;20037;-59
2020/12/14 07:23:12;;;;;;;28.10;14.10;;;18.80;50.40;;;;;;4993096;28;20030;-58
2020/12/14 07:25:38;;;;;;;28.15;14.45;;;18.80;50.40;;;;;;5009476;28;20026;-55
2020/12/14 07:28:03;;;;;;;29.52;14.73;;;18.70;50.30;;;;;;5009423;28;20409;-50
2020/12/14 07:30:29;;;;;;;31.23;13.40;;;18.70;50.30;;;;;;5010536;28;20049;-49
2020/12/14 07:32:55;;;;;;;24.30;13.52;;;18.70;50.30;;;;;;5009888;28;20030;-57
2020/12/14 07:35:20;;;;;;;23.73;13.15;;;18.70;50.40;;;;;;5010311;28;20038;-59
2020/12/14 07:37:46;;;;;;;23.50;13.40;;;18.70;50.40;;;;;;5010324;28;20022;-59
2020/12/14 07:40:11;;;;;;;27.17;13.80;;;18.60;50.30;;;;;;5011152;28;20096;-52
2020/12/14 07:42:38;;;;;;;27.08;14.38;;;18.70;50.40;;;;;;5010160;28;20038;-48
2020/12/14 07:45:17;;;;;;;24.38;14.05;;;18.60;50.30;;;;;;5010309;28;20445;-57
2020/12/14 07:47:43;;;;;;;26.35;14.68;;;18.60;50.40;;;;;;5010121;28;20030;-57
2020/12/14 07:50:16;;;;;;;25.67;13.48;;;18.60;50.30;;;;;;5017511;28;20085;-54
2020/12/14 07:52:42;;;;;;;23.88;13.57;;;18.60;50.40;;;;;;5028502;28;20803;-60
2020/12/14 07:55:10;;;;;;;22.42;12.13;;;18.60;50.50;;;;;;5029984;28;20506;-58
2020/12/14 07:57:36;;;;;;;23.02;12.05;;;18.60;50.50;;;;;;5029264;28;20103;-62
2020/12/14 08:00:04;;;;;;;28.60;13.10;;;18.60;50.50;;;;;;5011946;28;20532;-63
2020/12/14 08:02:30;;;;;;;24.70;12.23;;;18.70;51.70;;;;;;5029176;28;20064;-59
2020/12/14 08:05:05;;;;;;;27.65;12.57;;;18.70;52.20;;;;;;5028765;28;20072;-57
2020/12/14 08:07:48;;;;;;;25.98;11.77;;;18.70;54.90;;;;;;5029880;28;20431;-59
2020/12/14 08:10:13;;;;;;;23.88;12.98;;;18.60;56.40;;;;;;5028119;28;21797;-56
2020/12/14 08:12:42;;;;;;;28.58;11.40;;;18.60;56.80;;;;;;5028207;28;20033;-55
2020/12/14 08:15:18;;;;;;;23.00;12.90;;;18.60;56.80;;;;;;5028466;28;20078;-57
2020/12/14 08:17:44;;;;;;;23.23;11.18;;;18.60;56.80;;;;;;5028428;28;20034;-58
2020/12/14 08:20:28;;;;;;;25.42;11.68;;;18.60;56.60;;;;;;5029312;28;20044;-56
2020/12/14 08:22:56;;;;;;;21.48;11.23;;;18.60;57.20;;;;;;5028931;28;20037;-52
2020/12/14 08:25:31;;;;;;;21.80;10.77;;;18.60;57.10;;;;;;5029103;28;20063;-55
2020/12/14 08:28:05;;;;;;;22.38;11.25;;;18.60;56.00;;;;;;5028341;28;20026;-60
2020/12/14 08:30:31;;;;;;;21.27;10.00;;;18.70;55.80;;;;;;5029371;28;20038;-57
2020/12/14 08:33:08;;;;;;;20.58;9.93;;;18.70;55.80;;;;;;5020868;28;20029;-57
2020/12/14 08:35:34;;;;;;;16.45;9.00;;;18.80;55.60;;;;;;5029364;28;20034;-57
2020/12/14 08:38:02;;;;;;;20.95;10.60;;;18.80;55.60;;;;;;5028579;28;20045;-58
2020/12/14 08:40:27;;;;;;;17.52;10.32;;;18.80;55.50;;;;;;5029563;28;20033;-59
2020/12/14 08:42:53;;;;;;;15.90;9.00;;;18.90;55.80;;;;;;5028557;28;20530;-57
2020/12/14 08:45:18;;;;;;;15.38;9.38;;;18.90;55.80;;;;;;5027609;28;20053;-60
2020/12/14 08:47:44;;;;;;;16.27;8.85;;;19.00;55.80;;;;;;5028299;28;20029;-58
2020/12/14 08:50:11;;;;;;;15.15;7.95;;;19.00;55.80;;;;;;5027723;28;20033;-58
2020/12/14 08:52:37;;;;;;;14.38;8.40;;;19.10;55.80;;;;;;5027731;28;20065;-57
2020/12/14 08:55:03;;;;;;;16.15;9.38;;;19.10;56.20;;;;;;5027454;28;20053;-57
2020/12/14 08:57:29;;;;;;;14.25;8.27;;;19.10;55.90;;;;;;5027667;28;20087;-59
2020/12/14 09:00:15;;;;;;;16.60;9.45;;;19.10;55.80;;;;;;5026848;28;20037;-57
2020/12/14 09:02:40;;;;;;;17.35;9.07;;;19.10;55.90;;;;;;5026801;28;20091;-59
2020/12/14 09:05:19;;;;;;;14.80;9.35;;;19.10;56.30;;;;;;5027529;28;20662;-57
2020/12/14 09:07:45;;;;;;;13.23;8.27;;;19.10;56.20;;;;;;5025984;28;20036;-54
2020/12/14 09:10:18;;;;;;;12.90;8.25;;;19.10;56.80;;;;;;5027161;28;20124;-59
2020/12/14 09:12:44;;;;;;;13.88;8.68;;;19.10;57.40;;;;;;5027126;28;20038;-57
2020/12/14 09:15:09;;;;;;;13.48;8.32;;;19.10;57.20;;;;;;5027182;28;20041;-57
2020/12/14 09:17:35;;;;;;;12.38;8.10;;;19.10;57.60;;;;;;5027271;28;20033;-59
2020/12/14 09:20:01;;;;;;;12.23;7.45;;;19.00;57.90;;;;;;5027057;28;20053;-56
2020/12/14 09:22:26;;;;;;;15.70;8.35;;;19.10;58.00;;;;;;5027011;28;20064;-58
2020/12/14 09:24:52;;;;;;;12.85;8.10;;;19.00;58.40;;;;;;5027158;28;20048;-59
2020/12/14 09:27:18;;;;;;;12.43;8.68;;;19.10;58.80;;;;;;5027593;28;20050;-56
2020/12/14 09:29:44;;;;;;;12.85;7.68;;;19.10;58.40;;;;;;5027259;28;20033;-57
2020/12/14 09:32:10;;;;;;;12.02;7.38;;;19.10;58.70;;;;;;5025375;28;20543;-58
2020/12/14 09:34:36;;;;;;;15.02;7.63;;;19.00;58.80;;;;;;5026251;28;20455;-56
2020/12/14 09:37:02;;;;;;;13.90;7.82;;;19.00;58.70;;;;;;5027026;28;20030;-57
2020/12/14 09:39:28;;;;;;;11.18;6.57;;;19.00;58.80;;;;;;5027224;28;20550;-57
2020/12/14 09:41:55;;;;;;;11.30;6.95;;;19.00;59.10;;;;;;5025837;28;20160;-58
2020/12/14 09:44:21;;;;;;;12.27;7.78;;;19.00;59.10;;;;;;5025607;28;20033;-58
2020/12/14 09:46:46;;;;;;;10.30;7.00;;;19.00;59.30;;;;;;5026800;28;20049;-57
2020/12/14 09:49:11;;;;;;;12.20;7.25;;;18.90;59.00;;;;;;5025819;28;20025;-58
2020/12/14 09:51:37;;;;;;;10.85;6.35;;;18.90;59.10;;;;;;5026757;28;20037;-55
2020/12/14 09:54:06;;;;;;;11.18;7.20;;;18.90;59.10;;;;;;5026862;28;20091;-57
2020/12/14 09:56:32;;;;;;;11.05;7.45;;;18.90;59.20;;;;;;5027210;28;20034;-58
2020/12/14 09:58:57;;;;;;;9.65;6.57;;;18.90;59.40;;;;;;5027169;28;20063;-58
2020/12/14 10:01:28;;;;;;;12.32;7.13;;;18.90;59.50;;;;;;5027168;28;20038;-57
2020/12/14 10:03:54;;;;;;;9.27;6.28;;;18.90;59.10;;;;;;5026946;28;20079;-58
2020/12/14 10:06:19;;;;;;;13.68;7.57;;;18.90;59.00;;;;;;5027063;28;20330;-57
2020/12/14 10:08:45;;;;;;;10.90;6.75;;;18.80;59.10;;;;;;5026759;28;20064;-56
2020/12/14 10:11:11;;;;;;;10.57;7.20;;;18.80;59.20;;;;;;5026671;28;20045;-58
2020/12/14 10:13:36;;;;;;;9.70;7.13;;;18.80;59.30;;;;;;5026589;28;20036;-57
2020/12/14 10:16:02;;;;;;;10.75;6.35;;;18.80;59.10;;;;;;5026906;28;20033;-56
2020/12/14 10:18:28;;;;;;;7.95;5.45;;;18.80;59.00;;;;;;5026744;28;20039;-58
2020/12/14 10:20:53;;;;;;;11.45;6.20;;;18.80;59.10;;;;;;5030322;28;20041;-57
2020/12/14 10:23:19;;;;;;;11.38;6.70;;;18.80;59.10;;;;;;5030477;28;20489;-58
2020/12/14 10:25:44;;;;;;;9.20;6.35;;;18.80;59.20;;;;;;5029446;28;20037;-57
2020/12/14 10:28:10;;;;;;;11.57;6.82;;;18.80;59.20;;;;;;5030397;28;20714;-55
2020/12/14 10:30:35;;;;;;;9.07;5.72;;;18.80;59.20;;;;;;5030370;28;20692;-57
2020/12/14 10:33:01;;;;;;;9.73;6.13;;;18.80;59.20;;;;;;5030224;28;20037;-59
2020/12/14 10:35:27;;;;;;;8.55;6.20;;;18.80;58.40;;;;;;5030981;28;20107;-58
2020/12/14 10:37:54;;;;;;;9.00;6.05;;;18.80;58.30;;;;;;5030063;28;20042;-56
2020/12/14 10:40:20;;;;;;;8.35;5.43;;;18.80;58.40;;;;;;5028926;28;20083;-54
2020/12/14 10:42:45;;;;;;;9.07;5.43;;;18.80;58.60;;;;;;5028498;28;20539;-57
2020/12/14 10:45:10;;;;;;;7.63;5.70;;;18.80;58.40;;;;;;5030077;28;20064;-59
2020/12/14 10:47:39;;;;;;;8.77;5.32;;;18.80;58.60;;;;;;5030160;28;20029;-58
2020/12/14 10:50:04;;;;;;;6.90;5.22;;;18.80;58.10;;;;;;5030072;28;20033;-57
2020/12/14 10:52:30;;;;;;;6.00;4.95;;;18.90;58.10;;;;;;5029581;28;20395;-58
2020/12/14 10:54:55;;;;;;;8.93;5.20;;;18.90;57.80;;;;;;5030367;28;20044;-59
2020/12/14 10:57:21;;;;;;;6.65;4.80;;;18.90;57.40;;;;;;5029912;28;20060;-57
2020/12/14 10:59:46;;;;;;;7.30;5.15;;;19.00;57.50;;;;;;5029631;28;20515;-57
2020/12/14 11:02:12;;;;;;;6.25;4.70;;;19.00;57.30;;;;;;5029513;28;20113;-58
2020/12/14 11:04:38;;;;;;;6.53;5.10;;;19.00;56.70;;;;;;5029764;28;20026;-58
2020/12/14 11:07:06;;;;;;;5.75;4.47;;;19.00;56.50;;;;;;5029286;28;20112;-57
2020/12/14 11:09:31;;;;;;;7.10;4.88;;;19.10;56.90;;;;;;5029656;28;20496;-58
2020/12/14 11:11:57;;;;;;;6.90;4.55;;;19.00;56.90;;;;;;5028674;28;20036;-56
2020/12/14 11:14:22;;;;;;;7.60;5.60;;;19.10;56.80;;;;;;5029423;28;20040;-58
2020/12/14 11:16:48;;;;;;;6.38;4.72;;;19.10;56.70;;;;;;5029403;28;20784;-58
2020/12/14 11:19:13;;;;;;;5.85;4.45;;;19.00;57.40;;;;;;5030068;28;20033;-52
2020/12/14 11:21:39;;;;;;;6.97;4.65;;;19.00;56.70;;;;;;5028802;28;20124;-58
2020/12/14 11:24:05;;;;;;;6.80;4.47;;;19.00;56.70;;;;;;5029491;28;20052;-58
2020/12/14 11:26:30;;;;;;;8.02;4.85;;;19.10;56.60;;;;;;5029858;28;20404;-56
2020/12/14 11:28:56;;;;;;;9.13;5.00;;;19.00;56.50;;;;;;5029119;28;20112;-58
2020/12/14 11:31:21;;;;;;;7.68;5.15;;;19.00;56.50;;;;;;5027702;28;20097;-55
2020/12/14 11:33:47;;;;;;;6.68;4.53;;;19.00;56.40;;;;;;5029176;28;20032;-55
2020/12/14 11:36:12;;;;;;;7.95;4.70;;;19.00;56.20;;;;;;5028748;28;20029;-55
2020/12/14 11:38:38;;;;;;;7.18;4.53;;;19.00;56.20;;;;;;5029100;28;20029;-58
2020/12/14 11:41:03;;;;;;;7.28;4.68;;;19.00;56.10;;;;;;5028705;28;20053;-59
2020/12/14 11:43:29;;;;;;;7.28;4.70;;;19.00;56.20;;;;;;5029506;28;20030;-59
2020/12/14 11:45:55;;;;;;;6.40;4.40;;;19.00;56.80;;;;;;5028979;28;20042;-54
2020/12/14 11:48:20;;;;;;;4.82;3.90;;;19.00;56.00;;;;;;5028658;28;20406;-57
2020/12/14 11:50:46;;;;;;;7.03;3.97;;;19.00;55.90;;;;;;5028380;28;20029;-57
2020/12/14 11:53:11;;;;;;;7.00;4.65;;;19.00;55.90;;;;;;5028824;28;20038;-56
2020/12/14 11:55:37;;;;;;;5.90;4.00;;;19.10;55.70;;;;;;5028578;28;20040;-58
2020/12/14 11:58:03;;;;;;;4.47;3.80;;;19.00;55.50;;;;;;5029189;28;20041;-56
2020/12/14 12:00:29;;;;;;;5.15;4.15;;;19.10;55.40;;;;;;5028311;28;20400;-55
2020/12/14 12:02:54;;;;;;;5.47;3.70;;;19.20;55.40;;;;;;5028087;28;20063;-58
2020/12/14 12:05:20;;;;;;;6.07;3.88;;;19.20;55.30;;;;;;5027720;28;20041;-55
2020/12/14 12:07:45;;;;;;;6.28;4.10;;;19.30;55.20;;;;;;5028496;28;20021;-54
2020/12/14 12:10:11;;;;;;;5.90;4.00;;;19.30;55.20;;;;;;5028144;28;20033;-58
2020/12/14 12:12:39;;;;;;;6.22;4.20;;;19.40;55.00;;;;;;5028138;28;20083;-59
2020/12/14 12:15:05;;;;;;;6.22;4.20;;;19.50;54.80;;;;;;5029316;28;20512;-58
2020/12/14 12:17:30;;;;;;;4.38;3.70;;;19.60;54.40;;;;;;5028316;28;20037;-56
2020/12/14 12:19:56;;;;;;;6.15;4.28;;;19.70;54.70;;;;;;5028458;28;20037;-58
2020/12/14 12:22:21;;;;;;;4.88;3.97;;;19.60;54.60;;;;;;5028249;28;20041;-56
2020/12/14 12:24:48;;;;;;;5.18;3.95;;;19.60;54.50;;;;;;5028565;28;20032;-54
2020/12/14 12:27:13;;;;;;;5.03;4.13;;;19.60;54.60;;;;;;5075717;22;20047;-64
2020/12/14 12:29:39;;;;;;;6.07;3.60;;;19.60;54.50;;;;;;5073649;28;20029;-65
2020/12/14 12:32:04;;;;;;;5.53;3.85;;;19.50;54.30;;;;;;5067590;28;20376;-64
2020/12/14 12:34:31;;;;;;;5.65;3.88;;;19.50;54.20;;;;;;5033515;28;20032;-64
2020/12/14 12:36:57;;;;;;;5.97;3.53;;;19.50;54.30;;;;;;5067743;28;20384;-60
2020/12/14 12:39:22;;;;;;;4.28;3.30;;;19.50;54.20;;;;;;5067658;28;20035;-65
2020/12/14 12:41:49;;;;;;;4.30;3.90;;;19.40;54.00;;;;;;5067619;28;20031;-64
2020/12/14 12:44:15;;;;;;;4.10;3.55;;;19.40;54.10;;;;;;5049938;28;20406;-59